< < Back
Terminal Aerodrome Forecast


Current Version              Previous Versions:   1  2  3  4  5  6  7  8  9  

Terminal Aerodrome Forecast

426
FTUS42 KTAE 021738 CCA
TAFABY
TAF COR
KABY 021738Z 0218/0318 36006KT P6SM VCSH SCT030
     FM030900 00000KT 5SM BR SCT250
     FM031300 31003KT P6SM SCT250=



Latest METAR

564
SAUS70 KWBC 031900 RRD
MTRABY
METAR KABY 031853Z 32009KT 10SM CLR 32/22 A2997 RMK AO2 SLP147
T03220222


USA.gov is the U.S. government's official web portal to all federal, state and local government web resources and services.